Time;durP1;ratioP1;P1;durP2;ratioP2;P2;SDS_P1;SDS_P2;PMS_P1;PMS_P2;Temp;Humidity;BMP_temperature;BMP_pressure;BME280_temperature;BME280_humidity;BME280_pressure;Samples;Min_cycle;Max_cycle;Signal;HPM_P1;HPM_P2
2023/02/13 00:01:05;;;;;;;13.47;11.60;;;7.80;99.90;;;;;;5113391;28;20230;-58
2023/02/13 00:03:34;;;;;;;16.73;11.50;;;7.70;99.90;;;;;;5119507;27;20232;-59
2023/02/13 00:06:03;;;;;;;15.13;11.10;;;7.70;99.90;;;;;;5114578;27;20232;-59
2023/02/13 00:08:31;;;;;;;17.23;11.13;;;7.80;99.90;;;;;;5107023;28;20716;-59
2023/02/13 00:11:00;;;;;;;14.77;11.07;;;7.90;99.90;;;;;;5093737;28;20253;-59
2023/02/13 00:13:28;;;;;;;14.60;10.97;;;7.90;99.90;;;;;;5096975;28;20581;-59
2023/02/13 00:15:57;;;;;;;14.30;11.80;;;8.00;99.90;;;;;;5105013;28;20237;-59
2023/02/13 00:18:25;;;;;;;14.00;10.63;;;8.10;99.90;;;;;;5113759;27;20231;-59
2023/02/13 00:21:01;;;;;;;14.60;10.23;;;7.90;99.90;;;;;;5114845;27;20233;-58
2023/02/13 00:23:33;;;;;;;16.57;11.67;;;7.90;99.90;;;;;;5094999;28;20236;-58
2023/02/13 00:26:04;;;;;;;15.43;11.50;;;8.00;99.90;;;;;;5113769;28;20284;-59
2023/02/13 00:28:32;;;;;;;14.57;11.50;;;8.00;99.90;;;;;;5113529;28;20699;-58
2023/02/13 00:31:06;;;;;;;17.03;11.40;;;7.90;99.90;;;;;;5113090;28;20226;-58
2023/02/13 00:33:34;;;;;;;12.93;9.80;;;7.90;99.90;;;;;;5112426;27;20240;-59
2023/02/13 00:36:05;;;;;;;15.67;11.90;;;7.90;99.90;;;;;;5113197;28;20214;-59
2023/02/13 00:38:34;;;;;;;12.60;10.50;;;7.80;99.90;;;;;;5106113;28;20222;-59
2023/02/13 00:41:03;;;;;;;15.23;11.53;;;7.80;99.90;;;;;;5092899;28;20218;-58
2023/02/13 00:43:32;;;;;;;12.73;10.43;;;8.10;99.90;;;;;;5104202;27;20631;-59
2023/02/13 00:46:00;;;;;;;12.40;9.17;;;8.10;99.90;;;;;;5112989;28;20229;-59
2023/02/13 00:48:30;;;;;;;15.13;11.00;;;8.10;99.90;;;;;;5113252;28;20253;-59
2023/02/13 00:50:58;;;;;;;14.23;9.80;;;8.00;99.90;;;;;;5113373;28;20240;-58
2023/02/13 00:53:29;;;;;;;12.13;9.53;;;8.00;99.90;;;;;;5094862;28;20229;-58
2023/02/13 00:55:59;;;;;;;13.57;10.27;;;8.20;99.90;;;;;;5094914;28;20225;-59
2023/02/13 00:58:27;;;;;;;12.17;9.13;;;8.20;99.90;;;;;;5112829;28;20225;-57
2023/02/13 01:00:55;;;;;;;14.13;10.00;;;8.10;99.90;;;;;;5092225;28;20235;-57
2023/02/13 01:03:25;;;;;;;10.77;8.77;;;8.00;99.90;;;;;;5107393;28;20218;-58
2023/02/13 01:05:53;;;;;;;14.33;10.37;;;8.00;99.90;;;;;;5112831;28;20304;-58
2023/02/13 01:08:21;;;;;;;11.83;9.93;;;7.80;99.90;;;;;;5124182;27;20689;-58
2023/02/13 01:10:49;;;;;;;12.00;9.83;;;7.80;99.90;;;;;;5098852;28;20230;-59
2023/02/13 01:13:19;;;;;;;13.60;9.53;;;7.70;99.90;;;;;;5119317;27;20300;-59
2023/02/13 01:15:47;;;;;;;12.33;9.63;;;7.60;99.90;;;;;;5119889;27;20233;-58
2023/02/13 01:18:17;;;;;;;12.60;9.40;;;7.70;99.90;;;;;;5116946;28;20264;-59
2023/02/13 01:20:46;;;;;;;13.27;10.43;;;7.70;99.90;;;;;;5098563;28;20596;-59
2023/02/13 01:23:14;;;;;;;12.40;9.97;;;7.70;99.90;;;;;;5098827;28;20245;-59
2023/02/13 01:25:42;;;;;;;13.20;10.07;;;7.50;99.90;;;;;;5116807;28;20221;-59
2023/02/13 01:28:10;;;;;;;12.17;9.17;;;7.50;99.90;;;;;;5116814;28;20222;-59
2023/02/13 01:30:40;;;;;;;16.30;10.83;;;7.40;99.90;;;;;;5116148;28;20233;-58
2023/02/13 01:33:09;;;;;;;15.00;10.53;;;7.40;99.90;;;;;;5098151;28;20260;-58
2023/02/13 01:35:39;;;;;;;13.73;10.23;;;7.40;99.90;;;;;;5116413;28;20689;-59
2023/02/13 01:38:09;;;;;;;13.63;9.90;;;7.30;99.90;;;;;;5101858;27;20596;-58
2023/02/13 01:40:45;;;;;;;13.67;10.77;;;7.40;99.90;;;;;;5137351;27;20229;-58
2023/02/13 01:43:13;;;;;;;18.03;11.80;;;7.40;99.90;;;;;;5116869;27;20237;-59
2023/02/13 01:45:44;;;;;;;15.23;11.10;;;7.30;99.90;;;;;;5098005;28;20222;-59
2023/02/13 01:48:17;;;;;;;17.73;12.77;;;7.50;99.90;;;;;;5096428;28;20717;-58
2023/02/13 01:50:51;;;;;;;14.90;11.67;;;7.40;99.90;;;;;;5127731;27;20580;-59
2023/02/13 01:53:25;;;;;;;16.50;11.40;;;7.40;99.90;;;;;;5119068;27;20224;-58
2023/02/13 01:55:59;;;;;;;16.40;12.40;;;7.40;99.90;;;;;;5136974;27;20572;-58
2023/02/13 01:58:32;;;;;;;16.37;11.90;;;7.40;99.90;;;;;;5118496;27;20229;-58
2023/02/13 02:01:02;;;;;;;15.67;11.77;;;7.30;99.90;;;;;;5077148;28;20235;-58
2023/02/13 02:03:35;;;;;;;14.70;11.50;;;7.30;99.90;;;;;;5111455;28;20265;-59
2023/02/13 02:06:11;;;;;;;17.73;12.57;;;7.40;99.90;;;;;;5097701;28;20218;-58
2023/02/13 02:08:39;;;;;;;13.20;10.10;;;7.30;99.90;;;;;;5124534;27;20253;-59
2023/02/13 02:11:14;;;;;;;16.37;12.40;;;7.40;99.90;;;;;;5097592;28;20230;-59
2023/02/13 02:13:42;;;;;;;15.50;12.00;;;7.30;99.90;;;;;;5115886;28;20214;-59
2023/02/13 02:16:12;;;;;;;18.07;12.37;;;7.30;99.90;;;;;;5097402;28;20221;-59
2023/02/13 02:18:43;;;;;;;19.93;12.80;;;7.20;99.90;;;;;;5096556;28;20271;-59
2023/02/13 02:21:39;;;;;;;16.50;11.40;;;7.30;99.90;;;;;;5101621;27;20221;-59
2023/02/13 02:24:41;;;;;;;15.10;11.00;;;7.20;99.90;;;;;;5117890;27;20240;-59
2023/02/13 02:27:31;;;;;;;15.17;11.60;;;7.40;99.90;;;;;;5117715;27;20224;-59
2023/02/13 02:30:44;;;;;;;17.40;11.90;;;7.30;99.90;;;;;;5104954;28;20225;-59
2023/02/13 02:33:21;;;;;;;15.90;10.90;;;7.30;99.90;;;;;;5114847;28;20262;-59
2023/02/13 02:36:02;;;;;;;15.80;11.40;;;7.30;99.90;;;;;;5097358;28;20261;-59
2023/02/13 02:38:41;;;;;;;14.40;11.57;;;7.40;99.90;;;;;;5105488;28;20217;-59
2023/02/13 02:41:40;;;;;;;15.17;11.50;;;7.40;99.90;;;;;;5097248;28;20232;-59
2023/02/13 02:44:14;;;;;;;16.70;11.63;;;7.30;99.90;;;;;;5096845;28;20229;-58
2023/02/13 02:49:58;;;;;;;12.50;10.13;;;7.50;99.90;;;;;;5114498;28;20222;-58
2023/02/13 02:52:34;;;;;;;14.00;10.27;;;7.50;99.90;;;;;;5096794;28;20230;-58
2023/02/13 02:55:10;;;;;;;13.47;10.10;;;7.60;99.90;;;;;;5096801;28;20218;-59
2023/02/13 03:06:22;;;;;;;14.80;10.10;;;7.60;99.90;;;;;;5089132;27;20221;-58
2023/02/13 03:14:29;;;;;;;13.43;10.47;;;7.50;99.90;;;;;;5122709;27;20217;-59
2023/02/13 03:22:59;;;;;;;14.97;9.30;;;7.30;99.90;;;;;;5114752;28;20233;-59
2023/02/13 03:25:32;;;;;;;14.77;11.50;;;7.60;99.90;;;;;;5114740;28;20227;-59
2023/02/13 03:31:21;;;;;;;15.40;11.47;;;7.40;99.90;;;;;;5047864;28;20239;-59
2023/02/13 03:33:59;;;;;;;17.23;12.50;;;7.50;99.90;;;;;;5050505;28;20319;-59
2023/02/13 03:39:27;;;;;;;14.80;11.87;;;7.80;99.90;;;;;;5107847;28;20684;-59
2023/02/13 03:42:01;;;;;;;18.90;10.70;;;7.70;99.90;;;;;;5114512;28;20233;-59
2023/02/13 03:44:34;;;;;;;16.20;11.53;;;7.80;99.90;;;;;;5113810;28;20664;-59
2023/02/13 03:47:05;;;;;;;14.47;10.37;;;7.90;99.90;;;;;;5103439;28;20229;-58
2023/02/13 03:52:28;;;;;;;16.77;11.73;;;8.00;99.90;;;;;;5094029;28;20690;-59
2023/02/13 04:00:39;;;;;;;14.90;10.60;;;8.10;99.90;;;;;;5113490;28;20242;-58
2023/02/13 04:03:13;;;;;;;18.03;12.30;;;8.00;99.90;;;;;;5113976;28;20214;-59
2023/02/13 04:05:44;;;;;;;13.93;10.00;;;7.70;99.90;;;;;;5100930;28;20214;-59
2023/02/13 04:08:13;;;;;;;17.07;13.13;;;7.80;99.90;;;;;;5109506;27;20230;-59
2023/02/13 04:10:50;;;;;;;14.83;11.03;;;7.80;99.90;;;;;;5113693;28;20232;-59
2023/02/13 04:13:26;;;;;;;13.77;10.43;;;7.70;99.90;;;;;;5113937;28;20597;-59
2023/02/13 04:15:58;;;;;;;14.07;10.30;;;7.80;99.90;;;;;;5121761;27;20233;-58
2023/02/13 04:18:29;;;;;;;15.87;10.80;;;7.90;99.90;;;;;;5116337;27;20221;-58
2023/02/13 04:21:01;;;;;;;16.10;11.10;;;7.90;99.90;;;;;;5113539;28;20233;-59
2023/02/13 04:23:29;;;;;;;14.30;10.37;;;8.10;99.90;;;;;;5113505;28;20291;-59
2023/02/13 04:26:01;;;;;;;19.93;11.93;;;8.20;99.90;;;;;;5113556;28;20221;-59
2023/02/13 04:28:30;;;;;;;15.93;11.23;;;8.20;99.90;;;;;;5115806;27;20631;-59
2023/02/13 04:30:58;;;;;;;13.80;10.57;;;8.20;99.90;;;;;;5133714;27;20635;-58
2023/02/13 04:33:27;;;;;;;15.80;10.87;;;8.20;99.90;;;;;;5118147;27;20272;-59
2023/02/13 04:35:55;;;;;;;15.10;10.30;;;8.00;99.90;;;;;;5100451;28;20225;-59
2023/02/13 04:38:24;;;;;;;16.23;12.50;;;8.20;99.90;;;;;;5107627;28;20226;-59
2023/02/13 04:40:52;;;;;;;15.67;12.13;;;8.10;99.90;;;;;;5092988;28;20223;-58
2023/02/13 04:43:21;;;;;;;13.80;10.07;;;7.70;99.90;;;;;;5105314;27;20241;-59
2023/02/13 04:45:50;;;;;;;15.53;11.00;;;7.90;99.90;;;;;;5120563;27;20300;-59
2023/02/13 04:48:18;;;;;;;15.50;11.37;;;7.80;99.90;;;;;;5124016;28;20286;-58
2023/02/13 04:50:46;;;;;;;13.13;10.30;;;7.90;99.90;;;;;;5113103;28;20300;-59
2023/02/13 04:53:14;;;;;;;14.47;10.73;;;7.80;99.90;;;;;;5113115;28;20237;-59
2023/02/13 04:55:43;;;;;;;16.10;12.57;;;8.00;99.90;;;;;;5113163;28;20623;-59
2023/02/13 04:58:11;;;;;;;17.53;12.27;;;7.70;99.90;;;;;;5112877;28;20225;-59
2023/02/13 05:00:40;;;;;;;18.57;11.80;;;7.40;99.90;;;;;;5112790;28;20227;-59
2023/02/13 05:03:11;;;;;;;20.57;13.03;;;7.70;99.90;;;;;;5112082;28;20222;-59
2023/02/13 05:05:40;;;;;;;22.60;14.00;;;8.00;99.90;;;;;;5112966;28;20234;-59
2023/02/13 05:08:08;;;;;;;25.80;14.60;;;8.00;99.90;;;;;;5123766;28;20240;-59
2023/02/13 05:10:37;;;;;;;22.13;13.90;;;8.10;99.90;;;;;;5125451;28;20699;-59
2023/02/13 05:13:05;;;;;;;21.20;14.87;;;8.10;99.90;;;;;;5131118;28;20229;-59
2023/02/13 05:15:33;;;;;;;22.27;15.30;;;8.10;99.90;;;;;;5112544;28;20222;-59
2023/02/13 05:18:02;;;;;;;21.50;14.73;;;7.80;99.90;;;;;;5112758;28;20582;-57
2023/02/13 05:20:30;;;;;;;18.60;12.83;;;7.50;99.90;;;;;;5115438;28;20225;-59
2023/02/13 05:25:45;;;;;;;20.20;14.17;;;7.70;99.90;;;;;;5112860;28;20237;-59
2023/02/13 05:30:55;;;;;;;19.50;12.10;;;7.70;99.90;;;;;;5111586;28;20226;-59
2023/02/13 05:33:25;;;;;;;21.30;13.57;;;7.70;99.90;;;;;;5112095;28;20218;-59
2023/02/13 05:35:53;;;;;;;21.17;13.40;;;7.90;99.90;;;;;;5112796;28;20229;-59
2023/02/13 05:38:21;;;;;;;21.33;14.93;;;7.90;99.90;;;;;;5121247;28;20267;-58
2023/02/13 05:40:49;;;;;;;19.73;13.53;;;7.80;99.90;;;;;;5126321;28;20221;-59
2023/02/13 05:43:17;;;;;;;21.27;12.87;;;7.40;99.90;;;;;;5133131;28;20244;-59
2023/02/13 05:45:45;;;;;;;21.47;15.20;;;7.60;99.90;;;;;;5111432;28;20234;-59
2023/02/13 05:48:13;;;;;;;16.60;11.73;;;7.50;99.90;;;;;;5115364;28;20621;-59
2023/02/13 05:50:42;;;;;;;20.50;13.80;;;7.50;99.90;;;;;;5112725;28;20222;-59
2023/02/13 05:53:10;;;;;;;18.67;12.30;;;7.40;99.90;;;;;;5112711;28;20226;-59
2023/02/13 05:55:39;;;;;;;19.53;14.73;;;7.40;99.90;;;;;;5115589;28;20701;-59
2023/02/13 05:58:08;;;;;;;19.43;14.00;;;7.30;99.90;;;;;;5120612;27;20233;-59
2023/02/13 06:00:36;;;;;;;19.47;12.60;;;7.20;99.90;;;;;;5124353;27;20652;-59
2023/02/13 06:03:05;;;;;;;18.37;12.23;;;7.20;99.90;;;;;;5120532;27;20312;-58
2023/02/13 06:05:33;;;;;;;22.17;14.13;;;7.40;99.90;;;;;;5125128;27;20233;-59
2023/02/13 06:08:03;;;;;;;19.93;13.57;;;7.40;99.90;;;;;;5123617;27;20579;-59
2023/02/13 06:10:31;;;;;;;20.03;14.17;;;7.20;99.90;;;;;;5127513;27;20225;-59
2023/02/13 06:12:59;;;;;;;20.87;13.70;;;7.10;99.90;;;;;;5136431;27;20232;-59
2023/02/13 06:15:27;;;;;;;19.27;13.20;;;7.10;99.90;;;;;;5121719;27;20582;-59
2023/02/13 06:17:55;;;;;;;19.77;14.03;;;7.20;99.90;;;;;;5118819;27;20237;-59
2023/02/13 06:20:23;;;;;;;20.63;12.60;;;7.10;99.90;;;;;;5117823;27;20233;-58
2023/02/13 06:22:52;;;;;;;22.60;14.30;;;7.20;99.90;;;;;;5115492;28;20222;-59
2023/02/13 06:25:21;;;;;;;22.77;13.47;;;7.10;99.90;;;;;;5126508;27;20240;-59
2023/02/13 06:27:50;;;;;;;24.43;14.43;;;7.60;99.90;;;;;;5127956;27;20248;-59
2023/02/13 06:30:18;;;;;;;28.70;16.07;;;7.90;99.90;;;;;;5127301;27;20225;-59
2023/02/13 06:32:48;;;;;;;23.77;14.80;;;8.00;99.90;;;;;;5123595;27;20800;-58
2023/02/13 06:35:16;;;;;;;23.00;15.80;;;7.80;99.90;;;;;;5127427;27;20228;-59
2023/02/13 06:37:44;;;;;;;21.97;15.47;;;7.70;99.90;;;;;;5128205;27;20252;-59
2023/02/13 06:40:14;;;;;;;22.63;15.33;;;7.40;99.90;;;;;;5119570;27;20232;-59
2023/02/13 06:42:44;;;;;;;24.80;14.43;;;7.40;99.90;;;;;;5136058;27;20225;-59
2023/02/13 06:45:13;;;;;;;25.30;14.87;;;7.60;99.90;;;;;;5117157;27;20221;-58
2023/02/13 06:47:42;;;;;;;24.00;15.30;;;7.60;99.90;;;;;;5126022;27;20226;-59
2023/02/13 06:50:12;;;;;;;21.33;13.53;;;7.40;99.90;;;;;;5135859;27;20225;-59
2023/02/13 06:52:40;;;;;;;25.20;17.30;;;7.50;99.90;;;;;;5136058;27;20676;-59
2023/02/13 06:55:08;;;;;;;23.50;14.77;;;7.60;99.90;;;;;;5135836;27;20229;-59
2023/02/13 06:57:36;;;;;;;23.20;16.23;;;7.70;99.90;;;;;;5135826;27;20226;-58
2023/02/13 07:00:07;;;;;;;23.43;14.97;;;7.70;99.90;;;;;;5115052;28;20229;-59
2023/02/13 07:02:37;;;;;;;24.00;15.67;;;7.60;99.90;;;;;;5114675;28;20234;-58
2023/02/13 07:05:05;;;;;;;24.97;16.07;;;7.50;99.90;;;;;;5114879;28;20214;-58
2023/02/13 07:07:34;;;;;;;22.90;14.80;;;7.30;99.90;;;;;;5121956;27;20236;-59
2023/02/13 07:10:02;;;;;;;22.23;14.87;;;7.20;99.90;;;;;;5116132;27;20233;-57
2023/02/13 07:12:32;;;;;;;22.33;15.23;;;7.10;99.90;;;;;;5114738;28;20685;-59
2023/02/13 07:15:01;;;;;;;22.37;15.53;;;7.10;99.90;;;;;;5120713;27;20222;-59
2023/02/13 07:17:31;;;;;;;22.37;15.57;;;7.10;99.90;;;;;;5114633;28;20222;-58
2023/02/13 07:19:59;;;;;;;23.93;15.73;;;7.10;99.90;;;;;;5128238;27;20549;-58
2023/02/13 07:22:27;;;;;;;24.83;16.27;;;7.00;99.90;;;;;;5125287;27;20768;-57
2023/02/13 07:24:57;;;;;;;26.80;17.33;;;7.10;99.90;;;;;;5124327;27;20237;-58
2023/02/13 07:27:28;;;;;;;25.80;16.50;;;7.10;99.90;;;;;;5128906;27;20230;-59
2023/02/13 07:29:56;;;;;;;29.07;17.67;;;7.20;99.90;;;;;;5129939;27;20225;-58
2023/02/13 07:32:25;;;;;;;26.30;16.70;;;7.20;99.90;;;;;;5122257;27;20701;-58
2023/02/13 07:34:54;;;;;;;22.13;16.23;;;7.30;99.90;;;;;;5130934;27;20225;-57
2023/02/13 07:37:29;;;;;;;26.73;16.23;;;7.20;99.90;;;;;;5121359;27;20277;-58
2023/02/13 07:39:57;;;;;;;24.73;16.00;;;7.30;99.90;;;;;;5132531;27;20244;-58
2023/02/13 07:42:25;;;;;;;26.30;17.60;;;7.30;99.90;;;;;;5116153;27;20232;-58
2023/02/13 07:44:53;;;;;;;25.77;17.77;;;7.30;99.90;;;;;;5112774;27;20240;-59
2023/02/13 07:47:22;;;;;;;24.97;17.13;;;7.20;99.90;;;;;;5106036;28;20230;-59
2023/02/13 07:49:50;;;;;;;25.80;17.33;;;7.10;99.90;;;;;;5109907;28;20225;-58
2023/02/13 07:52:19;;;;;;;27.47;17.90;;;7.10;99.90;;;;;;5113906;28;20226;-59
2023/02/13 07:54:47;;;;;;;23.30;16.37;;;7.10;99.90;;;;;;5113536;28;20234;-58
2023/02/13 07:57:15;;;;;;;25.00;17.17;;;7.00;99.90;;;;;;5113993;28;20334;-58
2023/02/13 07:59:43;;;;;;;27.53;18.20;;;7.00;99.90;;;;;;5113843;28;20230;-59
2023/02/13 08:02:13;;;;;;;28.93;18.60;;;7.00;99.90;;;;;;5113717;28;20236;-58
2023/02/13 08:04:44;;;;;;;26.97;16.43;;;7.00;99.90;;;;;;5113684;28;20222;-58
2023/02/13 08:07:13;;;;;;;26.33;16.90;;;7.10;99.90;;;;;;5109460;28;20653;-59
2023/02/13 08:12:31;;;;;;;27.47;18.10;;;7.30;99.90;;;;;;5093462;28;20241;-58
2023/02/13 08:14:59;;;;;;;26.67;16.80;;;7.20;99.90;;;;;;5109802;27;20230;-58
2023/02/13 08:17:27;;;;;;;28.43;19.37;;;7.20;99.90;;;;;;5117310;27;20224;-59
2023/02/13 08:19:55;;;;;;;29.27;19.10;;;7.30;99.90;;;;;;5110573;28;20221;-59
2023/02/13 08:22:23;;;;;;;27.10;16.90;;;7.30;99.90;;;;;;5113439;28;20239;-59
2023/02/13 08:24:53;;;;;;;26.80;17.33;;;7.30;99.90;;;;;;5113092;28;20210;-59
2023/02/13 08:27:21;;;;;;;26.53;16.80;;;7.40;99.90;;;;;;5113001;28;20629;-59
2023/02/13 08:29:50;;;;;;;25.50;16.77;;;7.40;99.90;;;;;;5112843;28;20689;-57
2023/02/13 08:32:18;;;;;;;26.30;17.07;;;7.40;99.90;;;;;;5112651;28;20226;-58
2023/02/13 08:34:46;;;;;;;23.47;17.30;;;7.50;99.90;;;;;;5112927;28;20275;-59
2023/02/13 08:37:14;;;;;;;24.83;16.97;;;7.40;99.90;;;;;;5110054;28;20218;-57
2023/02/13 08:39:42;;;;;;;26.00;17.17;;;7.50;99.90;;;;;;5112970;28;20230;-59
2023/02/13 08:42:12;;;;;;;24.23;16.60;;;7.50;99.90;;;;;;5113114;28;20726;-59
2023/02/13 08:44:43;;;;;;;24.73;16.57;;;7.50;99.90;;;;;;5121898;27;20233;-58
2023/02/13 08:47:11;;;;;;;24.03;16.60;;;7.40;99.90;;;;;;5123107;27;20233;-58
2023/02/13 08:49:39;;;;;;;25.00;17.07;;;7.40;99.90;;;;;;5111979;28;20236;-59
2023/02/13 08:52:07;;;;;;;23.60;16.13;;;7.40;99.90;;;;;;5133228;27;20229;-59
2023/02/13 08:54:35;;;;;;;26.27;17.97;;;7.60;99.90;;;;;;5133747;27;20225;-59
2023/02/13 08:57:04;;;;;;;28.87;17.63;;;7.50;99.90;;;;;;5133928;27;20569;-58
2023/02/13 08:59:33;;;;;;;27.07;17.97;;;7.40;99.90;;;;;;5130359;28;20218;-58
2023/02/13 09:02:01;;;;;;;28.10;19.10;;;7.40;99.90;;;;;;5123906;28;20705;-59
2023/02/13 09:04:29;;;;;;;27.70;17.63;;;7.30;99.90;;;;;;5117318;28;20312;-58
2023/02/13 09:06:57;;;;;;;29.13;18.63;;;7.40;99.90;;;;;;5124791;28;20256;-59
2023/02/13 09:09:25;;;;;;;27.17;17.77;;;7.40;99.90;;;;;;5113552;28;20218;-59
2023/02/13 09:11:56;;;;;;;30.63;18.50;;;7.40;99.90;;;;;;5115455;28;20213;-58
2023/02/13 09:14:24;;;;;;;24.40;15.80;;;7.40;99.90;;;;;;5120075;28;20236;-58
2023/02/13 09:16:54;;;;;;;25.53;17.60;;;7.50;99.90;;;;;;5123125;28;20217;-58
2023/02/13 09:19:22;;;;;;;26.53;17.93;;;7.50;99.90;;;;;;5119528;28;20228;-57
2023/02/13 09:21:50;;;;;;;23.67;16.77;;;7.50;99.90;;;;;;5122652;28;20222;-59
2023/02/13 09:24:18;;;;;;;27.47;17.33;;;7.50;99.90;;;;;;5118576;28;20233;-58
2023/02/13 09:26:46;;;;;;;29.53;19.27;;;7.80;99.90;;;;;;5112854;28;20233;-58
2023/02/13 09:29:14;;;;;;;29.33;19.97;;;7.80;99.90;;;;;;5115237;28;20220;-59
2023/02/13 09:31:42;;;;;;;24.50;17.07;;;7.70;99.90;;;;;;5125539;27;20724;-58
2023/02/13 09:34:12;;;;;;;30.03;19.07;;;7.60;99.90;;;;;;5131632;27;20737;-59
2023/02/13 09:36:40;;;;;;;28.17;18.63;;;7.60;99.90;;;;;;5127856;27;20230;-59
2023/02/13 09:39:09;;;;;;;29.40;19.20;;;7.60;99.90;;;;;;5125065;27;20232;-59
2023/02/13 09:41:39;;;;;;;31.23;18.80;;;7.70;99.90;;;;;;5126768;27;20688;-59
2023/02/13 09:44:32;;;;;;;26.17;18.53;;;7.70;99.90;;;;;;5115277;28;20298;-59
2023/02/13 09:47:04;;;;;;;26.40;18.73;;;7.80;99.90;;;;;;5112967;28;20231;-59
2023/02/13 09:49:38;;;;;;;26.83;18.30;;;7.70;99.90;;;;;;5096206;28;20227;-59
2023/02/13 09:52:08;;;;;;;26.70;17.97;;;7.70;99.90;;;;;;5096335;28;20225;-58
2023/02/13 09:54:36;;;;;;;25.87;17.03;;;7.80;99.90;;;;;;5113838;28;20222;-59
2023/02/13 09:57:12;;;;;;;27.30;19.40;;;7.80;99.90;;;;;;5116225;28;20229;-59
2023/02/13 09:59:50;;;;;;;27.73;19.40;;;7.90;99.90;;;;;;5116721;28;20777;-58
2023/02/13 10:02:31;;;;;;;28.67;19.90;;;7.80;99.90;;;;;;5097806;28;20701;-58
2023/02/13 10:05:17;;;;;;;26.80;18.10;;;7.80;99.90;;;;;;5109574;27;20404;-59
2023/02/13 10:07:53;;;;;;;26.27;18.37;;;7.90;99.90;;;;;;5112274;28;20225;-59
2023/02/13 10:10:30;;;;;;;27.00;18.27;;;7.90;99.90;;;;;;5096018;28;20617;-58
2023/02/13 10:13:13;;;;;;;23.90;17.13;;;8.00;99.90;;;;;;5096087;28;20768;-58
2023/02/13 10:15:48;;;;;;;28.47;19.33;;;8.10;99.90;;;;;;5114725;27;20221;-56
2023/02/13 10:18:19;;;;;;;26.20;18.03;;;8.10;99.90;;;;;;5095583;28;20226;-58
2023/02/13 10:20:52;;;;;;;26.63;18.90;;;8.10;99.90;;;;;;5095354;28;20592;-58
2023/02/13 10:23:25;;;;;;;25.53;18.77;;;8.10;99.90;;;;;;5095777;28;20347;-58
2023/02/13 10:25:58;;;;;;;27.77;18.73;;;8.10;99.90;;;;;;5095680;28;20754;-58
2023/02/13 10:28:33;;;;;;;25.57;17.77;;;8.00;99.90;;;;;;5095084;28;20234;-58
2023/02/13 10:31:06;;;;;;;26.93;19.37;;;8.00;99.90;;;;;;5095111;28;20233;-58
2023/02/13 10:33:40;;;;;;;26.97;19.67;;;8.00;99.90;;;;;;5095084;28;20227;-58
2023/02/13 10:36:19;;;;;;;26.17;18.13;;;8.00;99.90;;;;;;5102722;28;20276;-58
2023/02/13 10:38:56;;;;;;;25.97;18.97;;;8.00;99.90;;;;;;5105461;28;20697;-58
2023/02/13 10:41:32;;;;;;;25.83;18.13;;;8.10;99.90;;;;;;5102858;28;20232;-58
2023/02/13 10:44:15;;;;;;;28.83;19.87;;;8.00;99.90;;;;;;5110466;27;20760;-58
2023/02/13 10:46:54;;;;;;;26.77;18.87;;;7.90;99.90;;;;;;5115380;28;20249;-58
2023/02/13 10:49:37;;;;;;;27.23;18.87;;;8.00;99.90;;;;;;5115245;28;20247;-59
2023/02/13 10:52:17;;;;;;;27.30;19.30;;;8.00;99.90;;;;;;5115239;28;20283;-58
2023/02/13 10:55:05;;;;;;;28.97;20.13;;;8.00;99.90;;;;;;5115085;28;20283;-58
2023/02/13 10:57:53;;;;;;;23.73;18.23;;;8.10;99.90;;;;;;5114967;28;20685;-58
2023/02/13 11:00:29;;;;;;;31.37;18.93;;;8.10;99.90;;;;;;5115032;28;20225;-58
2023/02/13 11:02:59;;;;;;;24.13;18.30;;;8.00;99.90;;;;;;5115008;28;20275;-58
2023/02/13 11:05:31;;;;;;;21.73;16.57;;;7.90;99.90;;;;;;5121626;27;20222;-57
2023/02/13 11:08:02;;;;;;;26.07;18.53;;;8.10;99.90;;;;;;5133190;27;20224;-58
2023/02/13 11:10:30;;;;;;;27.53;19.77;;;8.10;99.90;;;;;;5114748;28;20214;-59
2023/02/13 11:13:16;;;;;;;23.83;17.83;;;8.00;99.90;;;;;;5114884;28;20230;-58
2023/02/13 11:16:00;;;;;;;24.47;17.83;;;8.00;99.90;;;;;;5111326;28;20596;-58
2023/02/13 11:18:32;;;;;;;22.93;16.97;;;8.00;99.90;;;;;;5114850;28;20701;-58
2023/02/13 11:21:09;;;;;;;25.53;17.33;;;8.10;99.90;;;;;;5114801;28;20305;-59
2023/02/13 11:23:43;;;;;;;26.50;18.17;;;8.10;99.90;;;;;;5121552;27;20225;-57
2023/02/13 11:26:15;;;;;;;22.97;17.60;;;8.10;99.90;;;;;;5097525;27;20328;-56
2023/02/13 11:28:50;;;;;;;24.80;17.53;;;8.00;99.90;;;;;;5108130;27;20712;-58
2023/02/13 11:31:25;;;;;;;24.93;17.03;;;8.00;99.90;;;;;;5109582;28;20247;-59
2023/02/13 11:33:53;;;;;;;23.07;16.67;;;8.00;99.90;;;;;;5091977;28;20222;-58
2023/02/13 11:36:26;;;;;;;22.97;17.30;;;8.10;99.90;;;;;;5110588;27;20261;-59
2023/02/13 11:39:01;;;;;;;24.97;17.57;;;8.20;99.90;;;;;;5110203;28;20225;-59
2023/02/13 11:41:30;;;;;;;23.33;17.20;;;8.10;99.90;;;;;;5108594;28;20229;-58
2023/02/13 11:44:01;;;;;;;24.03;17.27;;;8.20;99.90;;;;;;5107001;28;20234;-58
2023/02/13 11:46:31;;;;;;;24.57;16.83;;;8.20;99.90;;;;;;5114038;28;20230;-59
2023/02/13 11:49:02;;;;;;;23.87;17.57;;;8.20;99.90;;;;;;5095140;28;20240;-58
2023/02/13 11:51:39;;;;;;;25.13;18.50;;;8.20;99.90;;;;;;5094204;28;20222;-58
2023/02/13 11:54:38;;;;;;;23.83;16.37;;;8.20;99.90;;;;;;5113419;28;20296;-58
2023/02/13 11:57:19;;;;;;;25.53;17.93;;;8.30;99.90;;;;;;5113971;28;20226;-58
2023/02/13 11:59:51;;;;;;;25.03;18.13;;;8.30;99.90;;;;;;5111637;28;20684;-59
2023/02/13 12:02:21;;;;;;;22.10;17.00;;;8.30;99.90;;;;;;5113302;27;20232;-58
2023/02/13 12:04:52;;;;;;;23.93;18.10;;;8.40;99.90;;;;;;5113367;28;20296;-58
2023/02/13 12:07:23;;;;;;;23.67;17.47;;;8.40;99.90;;;;;;5113750;28;20244;-58
2023/02/13 12:10:00;;;;;;;27.87;18.73;;;8.40;99.90;;;;;;5103149;27;20222;-58
2023/02/13 12:12:35;;;;;;;26.50;18.17;;;8.40;99.90;;;;;;5112850;28;20681;-59
2023/02/13 12:15:16;;;;;;;24.03;17.77;;;8.30;99.90;;;;;;5113541;28;20232;-58
2023/02/13 12:17:47;;;;;;;26.57;17.83;;;8.30;99.90;;;;;;5105648;28;20222;-59
2023/02/13 12:20:17;;;;;;;24.77;17.63;;;8.40;99.90;;;;;;5113310;28;20229;-59
2023/02/13 12:22:59;;;;;;;24.33;17.63;;;8.40;99.90;;;;;;5111432;28;20234;-59
2023/02/13 12:25:49;;;;;;;24.33;17.90;;;8.40;99.90;;;;;;5113319;28;20236;-59
2023/02/13 12:28:23;;;;;;;28.03;18.87;;;8.50;99.90;;;;;;5113731;28;20233;-58
2023/02/13 12:31:30;;;;;;;24.47;18.20;;;8.60;99.90;;;;;;5113255;28;20236;-58
2023/02/13 12:34:34;;;;;;;26.43;18.03;;;8.60;99.90;;;;;;5079633;28;20668;-59
2023/02/13 12:37:16;;;;;;;27.50;19.27;;;8.60;99.90;;;;;;5110657;28;20229;-59
2023/02/13 12:39:58;;;;;;;21.93;16.17;;;8.70;99.90;;;;;;5113177;28;20253;-59
2023/02/13 12:42:41;;;;;;;26.40;18.97;;;8.70;99.90;;;;;;5113085;28;20627;-59
2023/02/13 12:45:21;;;;;;;24.17;17.67;;;8.70;99.90;;;;;;5110025;28;20231;-59
2023/02/13 12:48:04;;;;;;;25.87;18.47;;;8.60;99.90;;;;;;5110312;28;20249;-59
2023/02/13 12:50:52;;;;;;;24.80;18.00;;;8.60;99.90;;;;;;5113465;28;20222;-59
2023/02/13 12:53:36;;;;;;;25.93;18.57;;;8.70;99.90;;;;;;5113188;28;20229;-59
2023/02/13 12:56:26;;;;;;;26.83;18.53;;;8.70;99.90;;;;;;5103663;28;20697;-58
2023/02/13 12:59:04;;;;;;;26.67;19.13;;;8.70;99.90;;;;;;5099097;28;20214;-59
2023/02/13 13:02:02;;;;;;;24.77;17.83;;;8.70;99.90;;;;;;5112531;28;20225;-58
2023/02/13 13:04:42;;;;;;;27.33;18.63;;;8.80;99.90;;;;;;5076901;28;20325;-58
2023/02/13 13:07:31;;;;;;;27.13;19.37;;;8.60;99.90;;;;;;5113172;28;20228;-59
2023/02/13 13:10:15;;;;;;;28.27;19.40;;;8.70;99.90;;;;;;5094179;28;20233;-59
2023/02/13 13:12:54;;;;;;;28.27;19.07;;;8.70;99.90;;;;;;5092472;28;20222;-59
2023/02/13 13:15:32;;;;;;;27.93;19.40;;;8.60;99.90;;;;;;5107369;28;20229;-58
2023/02/13 13:18:13;;;;;;;26.13;18.00;;;8.60;99.90;;;;;;5104496;28;20222;-58
2023/02/13 13:20:56;;;;;;;27.83;18.63;;;8.60;99.90;;;;;;5116965;28;20217;-58
2023/02/13 13:23:31;;;;;;;31.20;20.80;;;8.60;99.90;;;;;;5133577;28;20233;-58
2023/02/13 13:26:11;;;;;;;27.83;19.87;;;8.60;99.90;;;;;;5131629;27;20209;-58
2023/02/13 13:28:42;;;;;;;29.53;21.10;;;8.50;99.90;;;;;;5112419;28;20223;-58
2023/02/13 13:31:13;;;;;;;28.73;20.27;;;8.60;99.90;;;;;;5110527;28;20238;-58
2023/02/13 13:33:45;;;;;;;31.80;21.27;;;8.60;99.90;;;;;;5112963;28;20321;-59
2023/02/13 13:36:19;;;;;;;28.77;20.17;;;8.50;99.90;;;;;;5111295;28;20222;-59
2023/02/13 13:38:57;;;;;;;28.13;19.77;;;8.50;99.90;;;;;;5109838;28;20222;-58
2023/02/13 13:41:38;;;;;;;29.33;18.37;;;8.60;99.90;;;;;;5112472;28;20305;-58
2023/02/13 13:44:25;;;;;;;26.47;19.50;;;8.60;99.90;;;;;;5112702;28;20234;-59
2023/02/13 13:46:59;;;;;;;24.83;17.63;;;8.70;99.90;;;;;;5092289;28;20218;-58
2023/02/13 13:49:40;;;;;;;29.17;18.77;;;8.70;99.90;;;;;;5092624;28;20701;-58
2023/02/13 13:52:21;;;;;;;26.53;19.23;;;8.80;99.90;;;;;;5103933;28;20619;-58